Island Park, ID (83429)

11:01 PM MDT on September 03, 2015 (GMT -0600)
Yellowstone | | Change Station
CLOSE
Current Station
Airport
Location: West Yellowstone,
Elevation: 6644 ft
Nearby Weather Stations

Elev 6644 ft 44.69 °N, 111.12 °W | Updated 16 minutes ago

Mostly Cloudy
Mostly Cloudy
50 °F
Feels Like 50 °F
N
6
Wind Variable Wind from SSE

Today
High -- | Low -- °F
--% Chance of Precip.
Yesterday
High -- | Low -- °F
Precip. -- in
6:50 AM 7:58 PM
Waning Gibbous, 63% visible
Pressure 30.02 in
Visibility 10.0 miles
Clouds Few 4200 ft
Scattered Clouds 5000 ft
Mostly Cloudy 11000 ft
Dew Point 46 °F
Humidity 87%
Rainfall 0.05 in
Snow Depth Not available.
UV 0 out of 12
Pollen 8.70 out of 12
Air Quality Not available.
Flu Activity Not available.
METAR KWYS 040445Z AUTO 15005KT 10SM FEW042 SCT050 BKN110 10/08 A3002 RMK AO2 P0002
Pressure 30.02 in
Visibility 10.0 miles
Clouds Few 4200 ft
Scattered Clouds 5000 ft
Mostly Cloudy 11000 ft
Dew Point 46 °F
Humidity 87%
Rainfall 0.05 in
Snow Depth Not available.
UV 0 out of 12
Pollen 8.70 out of 12
Air Quality Not available.
Flu Activity Not available.
METAR KWYS 040445Z AUTO 15005KT 10SM FEW042 SCT050 BKN110 10/08 A3002 RMK AO2 P0002

10-Day Weather Forecast

×

Almanac

Astronomy

Sep. 03, 2015 Rise Set
Actual Time
Civil Twilight
Nautical Twilight
Astronomical Twilight
Moon
Length of Visible Light
Length of Day
Tomorrow will be .
, % of the Moon is Illuminated

Today's Extremes

State Highs State Lows

Community

WunderPhotos

Upload Photos

1,852,129 photos uploaded!

WunderBlogs® & News

Nearby

Air Quality

  Air Quality AQ Index Pollutant
Not available.

Snow Depth

Station Depth Elevation

Earthquake Activity

City Distance Mag. Time & Date
Minimum magnitude displayed is 2.5.

Coastal Water Temperatures

Place Temperature

Stations

Nearby Weather Stations

Station Location Temp. Windchill Dew Point Humidity Wind Precip. Elev Updated Type